Time;durP1;ratioP1;P1;durP2;ratioP2;P2;SDS_P1;SDS_P2;PMS_P1;PMS_P2;Temp;Humidity;BMP_temperature;BMP_pressure;BME280_temperature;BME280_humidity;BME280_pressure;Samples;Min_cycle;Max_cycle;Signal;HPM_P1;HPM_P2
2022/04/13 00:02:02;;;;;;;10.73;7.00;;;;;;;5.63;63.15;100986.59;5010121;28;20205;-72
2022/04/13 00:04:28;;;;;;;10.37;6.33;;;;;;;5.63;63.13;100991.75;5009748;28;20219;-72
2022/04/13 00:06:55;;;;;;;13.20;7.00;;;;;;;5.58;62.86;100994.34;5007783;28;20688;-72
2022/04/13 00:09:21;;;;;;;13.20;6.60;;;;;;;5.61;62.81;100986.59;5009775;28;20601;-72
2022/04/13 00:11:50;;;;;;;11.70;7.13;;;;;;;5.59;62.84;100979.66;5010394;28;20205;-72
2022/04/13 00:14:16;;;;;;;11.43;6.50;;;;;;;5.58;63.14;100977.97;5004399;28;20185;-72
2022/04/13 00:16:43;;;;;;;12.07;7.03;;;;;;;5.57;63.91;100971.91;5009935;28;20208;-72
2022/04/13 00:19:09;;;;;;;11.77;6.87;;;;;;;5.54;63.26;100973.63;5009456;28;20697;-72
2022/04/13 00:21:35;;;;;;;11.10;6.93;;;;;;;5.52;63.60;100967.59;5009551;28;20211;-72
2022/04/13 00:24:02;;;;;;;9.70;6.50;;;;;;;5.49;63.58;100969.34;5009534;28;20216;-72
2022/04/13 00:26:28;;;;;;;11.83;7.27;;;;;;;5.45;63.78;100965.03;5009766;28;20215;-72
2022/04/13 00:28:56;;;;;;;10.33;7.03;;;;;;;5.46;64.35;100971.06;5012006;28;20207;-72
2022/04/13 00:31:22;;;;;;;11.67;6.67;;;;;;;5.42;64.67;100970.19;5008762;28;20196;-72
2022/04/13 00:33:49;;;;;;;11.40;7.30;;;;;;;5.38;64.62;100968.47;5009631;28;20204;-72
2022/04/13 00:36:16;;;;;;;13.40;7.50;;;;;;;5.35;64.66;100973.63;5009657;28;20208;-72
2022/04/13 00:38:43;;;;;;;9.73;6.90;;;;;;;5.31;64.60;100977.94;5009067;28;20601;-72
2022/04/13 00:41:09;;;;;;;11.37;6.80;;;;;;;5.26;64.60;100966.72;5005062;28;20659;-72
2022/04/13 00:43:36;;;;;;;11.60;6.70;;;;;;;5.25;64.84;100972.75;5009523;28;20216;-72
2022/04/13 00:46:04;;;;;;;12.07;7.37;;;;;;;5.21;65.84;100965.88;5008571;28;20532;-72
2022/04/13 00:48:33;;;;;;;10.43;7.00;;;;;;;5.21;65.69;100972.75;5009676;28;20680;-72
2022/04/13 00:50:59;;;;;;;13.07;7.17;;;;;;;5.21;65.86;100975.34;5009576;28;20577;-72
2022/04/13 00:53:27;;;;;;;10.80;7.53;;;;;;;5.18;65.76;100973.59;5008790;28;20185;-72
2022/04/13 00:55:56;;;;;;;11.00;7.53;;;;;;;5.20;66.58;100966.72;5009286;28;20546;-72
2022/04/13 00:58:24;;;;;;;12.70;7.03;;;;;;;5.15;66.25;100965.84;5008572;28;20683;-72
2022/04/13 01:00:51;;;;;;;11.40;7.67;;;;;;;5.09;67.26;100960.66;5009288;28;20241;-72
2022/04/13 01:03:21;;;;;;;11.33;6.87;;;;;;;5.05;66.94;100964.13;5000109;28;20218;-72
2022/04/13 01:05:49;;;;;;;11.70;7.10;;;;;;;5.04;67.74;100963.22;5003763;28;20288;-72
2022/04/13 01:08:17;;;;;;;11.67;7.57;;;;;;;4.99;68.49;100964.94;5006696;28;20211;-72
2022/04/13 01:10:45;;;;;;;9.83;6.57;;;;;;;4.93;67.97;100962.38;5001266;28;20226;-72
2022/04/13 01:13:12;;;;;;;11.33;7.03;;;;;;;4.93;67.97;100960.63;5008805;28;20196;-72
2022/04/13 01:15:38;;;;;;;12.23;7.53;;;;;;;4.90;67.93;100954.59;5008610;28;20203;-72
2022/04/13 01:18:06;;;;;;;12.30;7.50;;;;;;;4.87;68.59;100949.41;5008855;28;20223;-72
2022/04/13 01:20:34;;;;;;;10.50;7.17;;;;;;;4.86;69.28;100958.91;5008557;28;20589;-72
2022/04/13 01:23:02;;;;;;;12.93;7.63;;;;;;;4.83;68.88;100952.84;5005241;28;20289;-72
2022/04/13 01:25:29;;;;;;;13.63;8.10;;;;;;;4.83;68.98;100943.38;5007012;28;20204;-72
2022/04/13 01:27:55;;;;;;;11.73;7.60;;;;;;;4.83;69.99;100947.69;5008305;28;20211;-72
2022/04/13 01:30:23;;;;;;;11.93;7.63;;;;;;;4.79;69.56;100945.97;5008647;28;20225;-72
2022/04/13 01:32:51;;;;;;;14.40;7.80;;;;;;;4.78;70.16;100945.09;5008492;28;20656;-72
2022/04/13 01:35:17;;;;;;;13.60;7.70;;;;;;;4.78;69.88;100939.06;5008600;28;20192;-72
2022/04/13 01:37:44;;;;;;;13.07;7.17;;;;;;;4.74;70.97;100941.63;5008691;28;20208;-72
2022/04/13 01:40:12;;;;;;;14.53;8.20;;;;;;;4.70;71.12;100941.63;5008276;28;20232;-71
2022/04/13 01:42:38;;;;;;;10.20;6.87;;;;;;;4.66;71.34;100948.50;5008404;28;20210;-72
2022/04/13 01:45:06;;;;;;;15.93;7.57;;;;;;;4.63;71.61;100955.38;5003267;28;20216;-72
2022/04/13 01:47:32;;;;;;;12.83;7.90;;;;;;;4.60;71.30;100955.38;5007715;28;20204;-72
2022/04/13 01:49:59;;;;;;;15.10;8.03;;;;;;;4.56;71.79;100954.50;5007851;28;20220;-72
2022/04/13 01:52:26;;;;;;;12.73;7.83;;;;;;;4.52;72.13;100956.22;5008032;28;20605;-72
2022/04/13 01:54:52;;;;;;;12.83;7.80;;;;;;;4.49;72.14;100952.75;5007324;28;20200;-72
2022/04/13 01:57:22;;;;;;;13.87;8.37;;;;;;;4.49;72.70;100955.34;5007605;28;20273;-72
2022/04/13 01:59:48;;;;;;;11.50;8.20;;;;;;;4.46;72.59;100953.59;5008108;28;20295;-72
2022/04/13 02:02:16;;;;;;;14.70;8.23;;;;;;;4.39;72.74;100959.56;5011151;28;20206;-73
2022/04/13 02:04:43;;;;;;;12.00;7.70;;;;;;;4.36;74.07;100957.84;5006203;28;20212;-72
2022/04/13 02:07:09;;;;;;;12.93;8.33;;;;;;;4.31;73.92;100951.81;5008012;28;20492;-72
2022/04/13 02:09:36;;;;;;;15.23;8.57;;;;;;;4.24;73.96;100957.81;5007363;28;20773;-72
2022/04/13 02:12:02;;;;;;;13.27;8.27;;;;;;;4.24;74.42;100952.63;5008350;28;20535;-72
2022/04/13 02:14:30;;;;;;;14.40;8.83;;;;;;;4.22;74.63;100959.50;5007509;28;20207;-72
2022/04/13 02:16:56;;;;;;;16.50;8.70;;;;;;;4.22;75.15;100961.22;5007996;28;20211;-72
2022/04/13 02:19:23;;;;;;;14.00;8.53;;;;;;;4.18;75.04;100962.91;4989753;28;20229;-72
2022/04/13 02:21:49;;;;;;;13.93;8.93;;;;;;;4.15;75.87;100968.03;5008156;28;20204;-72
2022/04/13 02:24:15;;;;;;;14.37;8.33;;;;;;;4.17;75.83;100967.22;5007502;28;20220;-72
2022/04/13 02:26:42;;;;;;;13.23;8.63;;;;;;;4.17;75.66;100969.81;4999647;28;20197;-72
2022/04/13 02:29:08;;;;;;;13.83;8.93;;;;;;;4.16;75.89;100968.06;5008430;28;20256;-72
2022/04/13 02:31:36;;;;;;;14.80;8.87;;;;;;;4.14;76.27;100961.19;5007728;28;20212;-72
2022/04/13 02:34:04;;;;;;;14.33;8.77;;;;;;;4.15;76.55;100968.03;5008611;28;20229;-72
2022/04/13 02:36:30;;;;;;;14.93;8.60;;;;;;;4.10;76.30;100970.63;5008404;28;20578;-72
2022/04/13 02:38:57;;;;;;;14.93;8.83;;;;;;;4.12;76.64;100965.47;5008588;28;20212;-72
2022/04/13 02:41:23;;;;;;;12.00;8.03;;;;;;;4.11;77.59;100954.25;5008222;28;20228;-72
2022/04/13 02:43:49;;;;;;;12.77;8.10;;;;;;;4.10;77.26;100956.88;5007784;28;20223;-72
2022/04/13 02:46:16;;;;;;;16.20;8.97;;;;;;;4.05;77.29;100951.66;5007888;28;20200;-72
2022/04/13 02:48:44;;;;;;;11.73;8.10;;;;;;;4.05;77.64;100951.66;4989250;28;20204;-72
2022/04/13 02:51:10;;;;;;;14.60;8.97;;;;;;;4.05;78.07;100950.81;5008040;28;20200;-72
2022/04/13 02:53:37;;;;;;;14.10;8.63;;;;;;;4.05;78.04;100950.81;5007521;28;20211;-72
2022/04/13 02:56:03;;;;;;;11.83;8.23;;;;;;;3.99;77.91;100954.19;5007395;28;20215;-72
2022/04/13 02:58:30;;;;;;;14.07;8.17;;;;;;;4.02;78.96;100950.78;5007667;28;20196;-72
2022/04/13 03:00:56;;;;;;;13.13;8.80;;;;;;;4.05;78.77;100945.66;4989077;28;20220;-72
2022/04/13 03:03:22;;;;;;;16.43;8.90;;;;;;;4.03;78.27;100948.22;5006244;28;20211;-72
2022/04/13 03:05:50;;;;;;;13.17;8.70;;;;;;;4.01;78.29;100944.78;5007632;28;20201;-72
2022/04/13 03:08:17;;;;;;;13.37;8.40;;;;;;;4.01;78.73;100951.63;5012510;28;20735;-72
2022/04/13 03:10:44;;;;;;;13.90;8.43;;;;;;;3.98;78.77;100943.03;5011688;28;20233;-72
2022/04/13 03:13:11;;;;;;;13.40;8.90;;;;;;;3.97;79.82;100940.44;5011229;28;20208;-71
2022/04/13 03:15:38;;;;;;;12.13;8.57;;;;;;;3.97;79.16;100941.31;5008177;28;20218;-72
2022/04/13 03:18:05;;;;;;;11.93;7.97;;;;;;;3.96;79.86;100942.16;5010562;28;20544;-72
2022/04/13 03:20:32;;;;;;;14.57;8.87;;;;;;;3.89;79.21;100945.56;5010876;28;20287;-72
2022/04/13 03:23:00;;;;;;;14.93;8.63;;;;;;;3.90;80.05;100939.53;5010513;28;20223;-72
2022/04/13 03:25:26;;;;;;;13.53;8.60;;;;;;;3.87;80.58;100941.22;5009213;28;20310;-72
2022/04/13 03:27:53;;;;;;;14.50;8.17;;;;;;;3.85;80.37;100945.50;5011135;28;20200;-72
2022/04/13 03:30:19;;;;;;;14.03;8.73;;;;;;;3.86;80.51;100939.50;5008245;28;20523;-72
2022/04/13 03:32:46;;;;;;;14.13;8.20;;;;;;;3.83;80.65;100944.63;5003813;28;20215;-72
2022/04/13 03:35:12;;;;;;;15.33;8.20;;;;;;;3.81;80.51;100942.06;5015010;28;20207;-72
2022/04/13 03:37:39;;;;;;;11.73;7.67;;;;;;;3.81;80.83;100941.19;5010574;28;20211;-72
2022/04/13 03:40:09;;;;;;;13.20;8.23;;;;;;;3.81;81.15;100942.06;5010633;28;20212;-72
2022/04/13 03:42:36;;;;;;;14.57;8.70;;;;;;;3.78;80.93;100940.31;5009439;28;20209;-72
2022/04/13 03:45:07;;;;;;;15.90;8.67;;;;;;;3.77;81.65;100933.44;5009750;28;20259;-72
2022/04/13 03:47:34;;;;;;;13.50;8.30;;;;;;;3.73;81.16;100933.38;5010679;28;20201;-72
2022/04/13 03:50:00;;;;;;;20.37;8.97;;;;;;;3.76;81.23;100939.47;5010457;28;20228;-72
2022/04/13 03:52:27;;;;;;;11.40;8.00;;;;;;;3.71;81.03;100938.56;5010346;28;20215;-72
2022/04/13 03:54:54;;;;;;;15.03;8.67;;;;;;;3.69;81.26;100942.81;5010558;28;20201;-72
2022/04/13 03:57:22;;;;;;;12.70;8.33;;;;;;;3.68;81.61;100940.25;5010258;28;20208;-72
2022/04/13 03:59:50;;;;;;;15.13;8.67;;;;;;;3.65;81.58;100940.22;5034037;23;20239;-67
2022/04/13 04:02:16;;;;;;;14.07;8.60;;;;;;;3.67;81.97;100941.09;5028860;28;20207;-66
2022/04/13 04:04:43;;;;;;;12.87;8.10;;;;;;;3.66;82.07;100932.50;5023896;28;20691;-65
2022/04/13 04:07:09;;;;;;;12.90;8.30;;;;;;;3.62;82.23;100945.34;5021207;28;20216;-67
2022/04/13 04:09:36;;;;;;;15.87;8.23;;;;;;;3.58;82.03;100945.31;5016477;28;20204;-67
2022/04/13 04:12:03;;;;;;;13.33;8.33;;;;;;;3.57;82.27;100942.72;5017742;28;20219;-66
2022/04/13 04:14:30;;;;;;;14.60;8.10;;;;;;;3.57;82.57;100948.78;5046513;23;20231;-72
2022/04/13 04:16:57;;;;;;;14.57;8.90;;;;;;;3.57;83.12;100951.34;5044964;28;20829;-72
2022/04/13 04:19:23;;;;;;;12.73;7.93;;;;;;;3.56;82.56;100957.34;5041964;28;20270;-71
2022/04/13 04:21:50;;;;;;;12.10;8.10;;;;;;;3.56;82.52;100954.75;5046083;28;20203;-72
2022/04/13 04:24:16;;;;;;;14.17;8.70;;;;;;;3.55;82.62;100957.31;5030338;28;20228;-72
2022/04/13 04:26:43;;;;;;;14.83;8.50;;;;;;;3.60;82.77;100955.66;5024485;28;20199;-72
2022/04/13 04:29:10;;;;;;;11.57;7.80;;;;;;;3.61;82.77;100957.38;5025249;28;20196;-72
2022/04/13 04:31:53;;;;;;;14.97;8.37;;;;;;;3.62;82.75;100956.53;5019864;28;20734;-71
2022/04/13 04:34:21;;;;;;;12.27;8.40;;;;;;;3.59;83.44;100949.63;5025672;28;20219;-71
2022/04/13 04:36:48;;;;;;;14.47;8.43;;;;;;;3.60;83.42;100956.50;5031491;28;20219;-72
2022/04/13 04:39:14;;;;;;;13.47;8.70;;;;;;;3.61;83.84;100952.22;5022096;28;20196;-72
2022/04/13 04:41:41;;;;;;;13.23;8.73;;;;;;;3.67;82.71;100960.00;5021891;28;20563;-72
2022/04/13 04:44:08;;;;;;;15.60;8.47;;;;;;;3.67;82.79;100954.00;5024709;28;20224;-71
2022/04/13 04:46:34;;;;;;;11.23;7.30;;;;;;;3.71;82.69;100955.72;5023769;28;20211;-72
2022/04/13 04:49:02;;;;;;;13.13;8.60;;;;;;;3.69;82.62;100958.28;5032237;28;20503;-72
2022/04/13 04:51:30;;;;;;;12.57;8.00;;;;;;;3.71;82.53;100959.19;5027161;28;20206;-71
2022/04/13 04:53:57;;;;;;;13.33;8.03;;;;;;;3.73;82.52;100966.91;5028034;28;20216;-72
2022/04/13 04:56:23;;;;;;;15.30;8.20;;;;;;;3.76;82.55;100969.53;5025153;28;20200;-72
2022/04/13 04:58:49;;;;;;;12.47;8.30;;;;;;;3.81;82.08;100973.00;5028062;28;20382;-72
2022/04/13 05:01:16;;;;;;;14.30;8.50;;;;;;;3.85;81.66;100976.47;5029357;28;20207;-72
2022/04/13 05:03:43;;;;;;;14.23;8.27;;;;;;;3.87;81.90;100970.47;5026439;28;20212;-72
2022/04/13 05:06:10;;;;;;;13.47;8.60;;;;;;;3.90;81.65;100983.38;5024255;28;20220;-72
2022/04/13 05:08:37;;;;;;;14.77;8.63;;;;;;;3.92;81.89;100979.13;5026040;28;20207;-71
2022/04/13 05:11:03;;;;;;;12.23;7.93;;;;;;;3.97;81.44;100982.59;5031508;28;20204;-72
2022/04/13 05:13:30;;;;;;;18.37;8.53;;;;;;;4.02;81.43;100981.75;5025028;28;20234;-72
2022/04/13 05:15:56;;;;;;;18.33;8.60;;;;;;;4.07;81.15;100982.66;5024543;28;20200;-71
2022/04/13 05:18:22;;;;;;;13.13;8.13;;;;;;;4.11;80.99;100987.81;5024984;28;20192;-72
2022/04/13 05:20:49;;;;;;;13.53;8.40;;;;;;;4.15;80.56;100988.69;5025882;28;20196;-72
2022/04/13 05:23:18;;;;;;;12.23;8.33;;;;;;;4.20;80.50;100992.16;5025176;28;20470;-71
2022/04/13 05:25:46;;;;;;;13.93;8.67;;;;;;;4.23;80.69;100992.19;5021636;28;20235;-71
2022/04/13 05:28:12;;;;;;;14.33;8.93;;;;;;;4.27;80.31;100993.94;5024570;28;20206;-71
2022/04/13 05:30:39;;;;;;;13.20;8.97;;;;;;;4.33;80.21;100995.72;5024332;28;20533;-71
2022/04/13 05:33:06;;;;;;;16.63;9.33;;;;;;;4.38;80.36;101000.88;5024648;28;20207;-71
2022/04/13 05:35:33;;;;;;;13.90;8.70;;;;;;;4.45;79.90;100997.47;5021578;28;20294;-71
2022/04/13 05:38:02;;;;;;;16.97;8.43;;;;;;;4.49;80.03;100997.50;5024669;28;20200;-71
2022/04/13 05:40:29;;;;;;;16.20;8.90;;;;;;;4.55;79.97;100999.25;5022244;28;20228;-71
2022/04/13 05:42:56;;;;;;;13.80;9.50;;;;;;;4.59;79.30;101006.16;5019923;28;20201;-71
2022/04/13 05:45:22;;;;;;;16.33;8.83;;;;;;;4.64;78.93;101001.00;5022090;28;20219;-72
2022/04/13 05:47:49;;;;;;;17.17;9.33;;;;;;;4.67;78.85;101001.88;5021452;28;20204;-73
2022/04/13 05:50:15;;;;;;;14.23;8.17;;;;;;;4.71;78.93;100998.47;5025493;28;20211;-73
2022/04/13 05:52:43;;;;;;;13.00;8.90;;;;;;;4.77;78.48;100997.63;5021170;28;20612;-71
2022/04/13 05:55:10;;;;;;;14.60;8.47;;;;;;;4.86;78.20;101000.22;5019074;28;20235;-71
2022/04/13 05:57:38;;;;;;;14.17;8.53;;;;;;;4.93;78.25;101003.72;5021580;28;20212;-72
2022/04/13 06:00:07;;;;;;;16.97;8.43;;;;;;;5.03;76.99;100996.81;5035206;28;20211;-71
2022/04/13 06:02:35;;;;;;;13.33;9.10;;;;;;;5.09;77.17;101000.28;5022488;28;20211;-71
2022/04/13 06:05:02;;;;;;;16.07;9.13;;;;;;;5.16;77.40;100990.00;5021604;28;20220;-71
2022/04/13 06:07:28;;;;;;;15.73;9.10;;;;;;;5.26;76.40;101004.66;5023275;28;20207;-71
2022/04/13 06:09:54;;;;;;;12.60;8.13;;;;;;;5.36;76.27;101001.19;5027473;28;20202;-71
2022/04/13 06:12:22;;;;;;;13.50;9.40;;;;;;;5.50;76.31;101003.81;5023240;28;20202;-71
2022/04/13 06:14:50;;;;;;;17.20;9.83;;;;;;;5.69;74.55;101004.69;5018884;28;20222;-71
2022/04/13 06:17:17;;;;;;;18.13;9.03;;;;;;;5.81;74.28;101003.81;5019809;28;20218;-71
2022/04/13 06:19:43;;;;;;;15.33;8.97;;;;;;;5.94;73.59;101004.66;5025935;28;20212;-71
2022/04/13 06:22:10;;;;;;;14.03;8.87;;;;;;;6.09;74.17;101004.69;5017684;28;20745;-71
2022/04/13 06:24:36;;;;;;;14.80;8.97;;;;;;;6.23;72.55;101013.28;5016914;28;20433;-71
2022/04/13 06:27:02;;;;;;;13.37;9.30;;;;;;;6.39;71.94;101016.72;5016370;28;20290;-71
2022/04/13 06:29:29;;;;;;;15.37;9.20;;;;;;;6.61;69.51;101020.09;5022880;28;20655;-71
2022/04/13 06:31:56;;;;;;;14.50;9.57;;;;;;;6.70;69.39;101014.03;5018936;28;20242;-71
2022/04/13 06:34:23;;;;;;;14.97;9.53;;;;;;;6.83;69.37;101015.69;5016542;28;20220;-71
2022/04/13 06:36:49;;;;;;;15.10;9.40;;;;;;;7.03;68.31;101022.50;5027678;28;20683;-71
2022/04/13 06:39:15;;;;;;;14.57;9.20;;;;;;;7.19;67.71;101013.78;5021208;28;20203;-71
2022/04/13 06:41:42;;;;;;;13.57;9.17;;;;;;;7.31;67.55;101018.00;5022927;28;20204;-71
2022/04/13 06:44:08;;;;;;;16.33;8.67;;;;;;;7.48;66.32;101025.69;5030241;28;20224;-71
2022/04/13 06:46:36;;;;;;;15.70;9.20;;;;;;;7.58;66.19;101016.97;5025175;28;20594;-71
2022/04/13 06:49:04;;;;;;;15.70;9.20;;;;;;;7.74;65.45;101020.31;5026952;28;20716;-71
2022/04/13 06:51:31;;;;;;;12.73;8.70;;;;;;;7.91;64.12;101025.34;5026137;28;20203;-71
2022/04/13 06:53:57;;;;;;;15.33;9.50;;;;;;;8.04;64.31;101020.91;5027131;28;20231;-71
2022/04/13 06:56:23;;;;;;;14.00;8.77;;;;;;;8.15;64.11;101021.66;5024728;28;20196;-71
2022/04/13 06:58:50;;;;;;;14.13;8.47;;;;;;;8.31;62.64;101034.50;5027039;28;20197;-72
2022/04/13 07:01:16;;;;;;;14.03;8.53;;;;;;;8.42;63.00;101037.00;5025171;28;20200;-71
2022/04/13 07:03:42;;;;;;;12.37;8.53;;;;;;;8.60;61.84;101031.63;5026155;28;20583;-72
2022/04/13 07:06:10;;;;;;;12.47;9.10;;;;;;;8.85;60.38;101039.16;5022878;28;20204;-71
2022/04/13 07:08:36;;;;;;;13.43;8.43;;;;;;;8.94;60.44;101032.97;5019721;28;20198;-71
2022/04/13 07:11:02;;;;;;;11.50;8.13;;;;;;;9.14;59.80;101037.91;5022589;28;20215;-71
2022/04/13 07:13:29;;;;;;;13.73;8.73;;;;;;;9.26;61.64;101033.38;5014658;28;20394;-71
2022/04/13 07:15:55;;;;;;;14.13;9.03;;;;;;;9.45;60.36;101035.72;5032043;28;20204;-71
2022/04/13 07:18:21;;;;;;;13.63;8.47;;;;;;;9.63;58.48;101042.38;5025531;28;20691;-71
2022/04/13 07:20:48;;;;;;;13.80;8.23;;;;;;;9.79;57.53;101043.00;5025808;28;20234;-70
2022/04/13 07:23:15;;;;;;;15.30;8.63;;;;;;;9.94;59.06;101039.31;5022767;28;20192;-71
2022/04/13 07:25:42;;;;;;;12.83;8.43;;;;;;;10.04;58.80;101043.44;5025609;28;20215;-70
2022/04/13 07:28:08;;;;;;;10.80;8.17;;;;;;;10.27;57.43;101043.03;5022530;28;20571;-71
2022/04/13 07:30:34;;;;;;;12.13;7.83;;;;;;;10.49;55.19;101047.91;5024343;28;20212;-71
2022/04/13 07:33:02;;;;;;;11.50;7.73;;;;;;;10.69;54.57;101045.75;5023081;28;20208;-71
2022/04/13 07:35:29;;;;;;;12.00;7.97;;;;;;;10.79;55.04;101039.47;5018143;28;20215;-71
2022/04/13 07:37:55;;;;;;;13.90;8.17;;;;;;;10.98;55.17;101047.78;5016964;28;20693;-72
2022/04/13 07:40:23;;;;;;;10.47;7.67;;;;;;;11.11;55.14;101047.50;5019293;28;20212;-71
2022/04/13 07:42:50;;;;;;;12.33;7.80;;;;;;;11.23;54.51;101051.59;5026831;28;20212;-72
2022/04/13 07:45:16;;;;;;;17.17;7.57;;;;;;;11.39;53.49;101054.72;5024225;28;20224;-71
2022/04/13 07:47:43;;;;;;;13.97;7.83;;;;;;;11.63;53.68;101054.16;5022427;28;20217;-72
2022/04/13 07:50:12;;;;;;;14.33;7.10;;;;;;;11.79;52.80;101057.28;5022371;28;21019;-71
2022/04/13 07:52:39;;;;;;;11.27;6.57;;;;;;;11.96;50.30;101056.91;5026130;28;20206;-71
2022/04/13 07:55:07;;;;;;;11.87;6.73;;;;;;;11.98;50.03;101059.44;5024596;28;20222;-73
2022/04/13 07:57:35;;;;;;;10.20;6.50;;;;;;;12.08;49.93;101063.53;5024002;28;20552;-71
2022/04/13 08:00:02;;;;;;;10.47;6.30;;;;;;;12.22;50.11;101052.75;5025238;28;20198;-70
2022/04/13 08:02:40;;;;;;;12.37;6.37;;;;;;;12.39;49.58;101053.16;5021075;28;20688;-71
2022/04/13 08:05:07;;;;;;;11.80;6.37;;;;;;;12.51;49.32;101049.34;5021730;28;20228;-71
2022/04/13 08:07:34;;;;;;;12.20;6.60;;;;;;;12.58;50.23;101053.50;5022065;28;20218;-71
2022/04/13 08:10:00;;;;;;;12.10;6.60;;;;;;;12.68;49.97;101046.25;5021453;28;20203;-71
2022/04/13 08:12:28;;;;;;;12.20;7.33;;;;;;;12.82;48.92;101051.97;5021618;28;20234;-71
2022/04/13 08:14:56;;;;;;;10.47;6.43;;;;;;;12.87;48.62;101042.25;5026506;28;20345;-71
2022/04/13 08:17:24;;;;;;;10.77;6.60;;;;;;;12.96;48.57;101056.78;5027570;28;20211;-70
2022/04/13 08:19:50;;;;;;;11.67;6.70;;;;;;;13.08;49.15;101045.09;5023128;28;20216;-71
2022/04/13 08:22:17;;;;;;;10.00;6.00;;;;;;;13.30;47.95;101047.94;5027817;28;20207;-71
2022/04/13 08:24:44;;;;;;;10.23;6.40;;;;;;;13.43;47.38;101043.22;5021202;28;20715;-70
2022/04/13 08:27:11;;;;;;;9.70;6.30;;;;;;;13.60;47.23;101043.53;5020920;28;20220;-71
2022/04/13 08:29:37;;;;;;;9.37;6.13;;;;;;;13.71;47.74;101042.34;5018058;28;20659;-71
2022/04/13 08:32:06;;;;;;;11.43;5.80;;;;;;;13.74;47.14;101047.47;5017249;28;20208;-71
2022/04/13 08:34:32;;;;;;;12.60;6.23;;;;;;;13.74;48.16;101048.34;5022910;28;20220;-71
2022/04/13 08:36:59;;;;;;;10.03;5.67;;;;;;;13.92;47.75;101041.63;5026015;28;20191;-71
2022/04/13 08:39:25;;;;;;;11.73;5.67;;;;;;;14.01;46.60;101043.06;5023767;28;20211;-71
2022/04/13 08:41:56;;;;;;;11.90;5.90;;;;;;;14.09;46.68;101040.19;5025809;28;20201;-71
2022/04/13 08:44:29;;;;;;;10.27;6.33;;;;;;;14.25;47.15;101038.75;5025214;28;20228;-71
2022/04/13 08:47:02;;;;;;;11.60;6.03;;;;;;;14.42;46.34;101042.56;5026053;28;20228;-71
2022/04/13 08:49:33;;;;;;;10.83;5.67;;;;;;;14.46;46.19;101047.66;5024502;28;20211;-71
2022/04/13 08:52:04;;;;;;;9.03;5.60;;;;;;;14.58;46.17;101047.25;5025090;28;20199;-71
2022/04/13 08:54:33;;;;;;;10.20;5.50;;;;;;;14.68;44.85;101049.53;5025485;28;20225;-71
2022/04/13 08:56:59;;;;;;;8.93;5.23;;;;;;;14.75;45.58;101037.88;5019798;28;20207;-70
2022/04/13 08:59:35;;;;;;;11.27;5.80;;;;;;;14.90;45.90;101044.34;5015893;28;20198;-71
2022/04/13 09:02:13;;;;;;;10.13;6.47;;;;;;;14.88;46.81;101046.16;5023421;28;20197;-71
2022/04/13 09:04:43;;;;;;;8.37;5.43;;;;;;;15.00;47.11;101047.47;5021416;28;20223;-71
2022/04/13 09:07:14;;;;;;;10.07;5.97;;;;;;;15.15;46.17;101045.09;5014567;28;20616;-72
2022/04/13 09:09:41;;;;;;;9.33;5.23;;;;;;;15.33;45.35;101043.53;5024255;28;20195;-71
2022/04/13 09:12:09;;;;;;;10.90;5.23;;;;;;;15.42;44.84;101044.94;5025776;28;20684;-70
2022/04/13 09:14:36;;;;;;;9.20;5.00;;;;;;;15.52;45.02;101045.44;5025015;28;20373;-71
2022/04/13 09:17:03;;;;;;;11.97;5.27;;;;;;;15.67;43.01;101039.56;5022789;28;20211;-71
2022/04/13 09:19:30;;;;;;;7.67;5.37;;;;;;;15.78;44.87;101039.16;5018200;28;20210;-72
2022/04/13 09:22:00;;;;;;;8.33;5.30;;;;;;;15.87;44.25;101030.88;5019593;28;20202;-71
2022/04/13 09:24:28;;;;;;;8.03;4.50;;;;;;;16.04;43.52;101039.81;5018176;28;20300;-71
2022/04/13 09:26:54;;;;;;;8.93;5.20;;;;;;;16.15;44.80;101034.97;5022165;28;20223;-71
2022/04/13 09:29:21;;;;;;;7.73;5.00;;;;;;;16.16;44.63;101027.94;5022223;28;20203;-71
2022/04/13 09:31:47;;;;;;;10.43;5.07;;;;;;;16.27;43.53;101039.72;5023505;28;20200;-71
2022/04/13 09:34:14;;;;;;;7.80;5.10;;;;;;;16.31;43.35;101029.91;5024615;28;20216;-71
2022/04/13 09:36:41;;;;;;;7.63;4.80;;;;;;;16.44;44.22;101024.94;5033708;28;20204;-71
2022/04/13 09:39:09;;;;;;;6.93;4.70;;;;;;;16.64;41.69;101034.63;5017442;28;20457;-71
2022/04/13 09:41:37;;;;;;;7.60;4.60;;;;;;;16.70;42.80;101034.31;5016078;28;20574;-74
2022/04/13 09:44:13;;;;;;;6.47;4.40;;;;;;;16.76;43.07;101028.78;5020657;28;20215;-73
2022/04/13 09:46:40;;;;;;;5.53;3.80;;;;;;;16.88;42.03;101026.53;5022992;28;20691;-74
2022/04/13 09:49:12;;;;;;;9.47;4.40;;;;;;;17.03;42.91;101018.78;5014875;28;20258;-73
2022/04/13 09:51:39;;;;;;;9.83;4.70;;;;;;;17.12;42.19;101022.75;5021734;28;20203;-76
2022/04/13 09:54:10;;;;;;;6.63;4.27;;;;;;;17.28;41.17;101027.31;5018655;28;20645;-76
2022/04/13 09:56:37;;;;;;;6.03;4.23;;;;;;;17.38;41.15;101020.69;5023262;28;20200;-75
2022/04/13 09:59:05;;;;;;;6.93;4.13;;;;;;;17.51;41.51;101024.41;5019143;28;20196;-75
2022/04/13 10:01:33;;;;;;;9.20;4.83;;;;;;;17.53;40.98;101024.34;5015009;28;21107;-76
2022/04/13 10:04:00;;;;;;;10.03;4.43;;;;;;;17.52;38.22;101030.53;5015045;28;20226;-76
2022/04/13 10:06:27;;;;;;;5.80;3.87;;;;;;;17.67;39.40;101029.78;5017396;28;20219;-77
2022/04/13 10:09:00;;;;;;;5.83;4.17;;;;;;;17.68;39.97;101012.19;5020942;28;21466;-76
2022/04/13 10:11:28;;;;;;;8.10;4.30;;;;;;;17.69;41.04;101016.53;5023094;28;20619;-76
2022/04/13 10:13:54;;;;;;;5.43;4.07;;;;;;;17.83;41.11;101019.31;5036605;22;20210;-69
2022/04/13 10:16:21;;;;;;;9.00;4.37;;;;;;;17.88;39.93;101024.41;5041328;28;20204;-69
2022/04/13 10:18:56;;;;;;;6.27;4.30;;;;;;;17.94;41.89;101011.75;5043961;28;20881;-69
2022/04/13 10:21:41;;;;;;;6.70;4.27;;;;;;;18.00;40.30;101022.94;5041152;28;20217;-67
2022/04/13 10:24:09;;;;;;;7.60;4.07;;;;;;;18.12;40.77;101022.31;5038529;28;20219;-66
2022/04/13 10:26:39;;;;;;;7.47;4.60;;;;;;;18.19;39.68;101020.19;5025814;28;20220;-67
2022/04/13 10:29:16;;;;;;;6.30;4.20;;;;;;;18.29;39.38;101024.94;5021096;28;20203;-67
2022/04/13 10:32:01;;;;;;;5.83;3.90;;;;;;;18.31;40.68;101014.25;5022648;28;20207;-67
2022/04/13 10:34:30;;;;;;;6.33;4.30;;;;;;;18.40;39.82;101018.22;5025207;28;20234;-67
2022/04/13 10:36:56;;;;;;;5.97;3.93;;;;;;;18.46;38.79;101004.69;5025058;28;20195;-67
2022/04/13 10:39:22;;;;;;;8.43;3.77;;;;;;;18.49;39.37;101015.09;5024544;28;20228;-67
2022/04/13 10:41:50;;;;;;;6.27;4.00;;;;;;;18.49;39.20;101009.81;5025957;28;20679;-66
2022/04/13 10:44:22;;;;;;;6.83;4.67;;;;;;;18.53;38.66;101016.63;5025010;28;20219;-67
2022/04/13 10:46:52;;;;;;;5.83;3.63;;;;;;;18.51;38.32;101016.72;5030963;28;20226;-68
2022/04/13 10:49:24;;;;;;;7.67;4.57;;;;;;;18.47;39.43;101009.91;5026043;28;20191;-67
2022/04/13 10:51:54;;;;;;;6.30;4.20;;;;;;;18.47;39.85;101009.91;5024311;28;20204;-67
2022/04/13 10:54:22;;;;;;;5.90;4.10;;;;;;;18.61;39.31;101010.94;5030295;28;20219;-67
2022/04/13 10:56:56;;;;;;;9.17;4.07;;;;;;;18.69;38.91;101006.09;5020170;28;20196;-68
2022/04/13 10:59:32;;;;;;;6.20;4.17;;;;;;;18.80;37.84;101008.16;5019754;28;20192;-66
2022/04/13 11:02:03;;;;;;;7.60;4.60;;;;;;;18.84;36.78;101013.25;5020820;28;20199;-66
2022/04/13 11:04:32;;;;;;;5.97;4.13;;;;;;;18.94;38.75;101010.91;5025704;28;20675;-67
2022/04/13 11:07:00;;;;;;;6.30;4.03;;;;;;;19.04;38.45;101013.94;5022866;28;20239;-66
2022/04/13 11:09:31;;;;;;;7.10;3.57;;;;;;;19.05;37.33;101015.63;5019354;28;20203;-66
2022/04/13 11:12:00;;;;;;;8.10;4.67;;;;;;;19.21;39.85;101007.72;5020866;28;20205;-66
2022/04/13 11:14:28;;;;;;;9.00;4.10;;;;;;;19.37;37.04;101011.19;5017348;28;20234;-66
2022/04/13 11:17:23;;;;;;;7.63;4.80;;;;;;;19.49;38.62;101005.19;5021690;28;20207;-66
2022/04/13 11:19:49;;;;;;;8.50;4.40;;;;;;;19.51;38.82;101010.38;5020072;28;20208;-66
2022/04/13 11:22:17;;;;;;;7.80;5.70;;;;;;;19.63;37.73;101001.75;5023910;28;20196;-66
2022/04/13 11:24:56;;;;;;;6.77;4.70;;;;;;;19.69;37.87;100989.94;5021707;28;20220;-66
2022/04/13 11:27:25;;;;;;;6.37;4.17;;;;;;;19.67;37.87;101000.63;5021161;28;20774;-66